Wetterdaten: Woche 30.04.12 - 06.05.12 (KW18)
Datum Zeit Temp. A. Feuchte A. Luftdruck Regen Wind Richtung Taupunkt Windchill Windben
30.04.2012 00:00 20,1 C 46 % 1010,9 hPa 0,0 l/m 3,0 km/h N 8,0 C 20,1 C 9,6 km/h
30.04.2012 01:00 19,9 C 46 % 1010,8 hPa 0,0 l/m 3,3 km/h N 7,9 C 19,9 C 11,3 km/h
30.04.2012 02:00 19,3 C 46 % 1010,8 hPa 0,0 l/m 1,6 km/h N 7,3 C 19,3 C 6,0 km/h
30.04.2012 03:00 16,2 C 55 % 1011,0 hPa 0,0 l/m 0,3 km/h N 7,0 C 16,2 C 3,6 km/h
30.04.2012 04:00 13,5 C 63 % 1011,7 hPa 0,0 l/m 0,0 km/h N 6,4 C 13,5 C 1,6 km/h
30.04.2012 05:00 11,8 C 70 % 1012,2 hPa 0,0 l/m 0,0 km/h N 6,4 C 11,8 C 1,1 km/h
30.04.2012 06:00 11,0 C 74 % 1012,6 hPa 0,0 l/m 0,0 km/h N 6,6 C 11,0 C 0,5 km/h
30.04.2012 07:00 12,8 C 75 % 1013,0 hPa 0,0 l/m 0,0 km/h N 8,5 C 12,8 C 0,8 km/h
30.04.2012 08:00 18,1 C 61 % 1013,2 hPa 0,0 l/m 0,1 km/h N 10,4 C 18,1 C 2,4 km/h
30.04.2012 09:00 22,1 C 48 % 1013,4 hPa 0,0 l/m 0,5 km/h N 10,6 C 22,1 C 4,0 km/h
30.04.2012 10:00 24,9 C 44 % 1013,7 hPa 0,0 l/m 1,0 km/h N 11,8 C 24,9 C 6,8 km/h
30.04.2012 11:00 27,1 C 40 % 1013,5 hPa 0,0 l/m 1,4 km/h N 12,1 C 27,1 C 6,4 km/h
30.04.2012 12:00 28,1 C 37 % 1013,1 hPa 0,0 l/m 2,1 km/h N 11,8 C 28,1 C 10,9 km/h
30.04.2012 13:00 29,1 C 31 % 1012,4 hPa 0,0 l/m 6,3 km/h N 10,0 C 28,9 C 18,9 km/h
30.04.2012 14:00 30,3 C 25 % 1012,1 hPa 0,0 l/m 9,6 km/h N 7,7 C 30,0 C 24,9 km/h
30.04.2012 15:00 29,8 C 24 % 1011,8 hPa 0,0 l/m 11,2 km/h N 6,9 C 29,4 C 25,3 km/h
30.04.2012 16:00 29,3 C 24 % 1011,6 hPa 0,0 l/m 11,9 km/h N 6,4 C 28,7 C 30,2 km/h
30.04.2012 17:00 28,8 C 24 % 1011,7 hPa 0,0 l/m 11,6 km/h N 6,0 C 28,2 C 29,0 km/h
30.04.2012 18:00 28,4 C 25 % 1011,8 hPa 0,0 l/m 9,4 km/h N 6,4 C 28,0 C 25,7 km/h
30.04.2012 19:00 27,3 C 27 % 1012,0 hPa 0,0 l/m 7,5 km/h N 6,5 C 27,1 C 21,3 km/h
30.04.2012 20:00 25,2 C 33 % 1012,3 hPa 0,0 l/m 2,7 km/h N 7,8 C 25,2 C 8,4 km/h
30.04.2012 21:00 21,9 C 42 % 1012,8 hPa 0,0 l/m 0,0 km/h N 8,3 C 21,9 C 0,4 km/h
30.04.2012 22:00 17,9 C 54 % 1012,9 hPa 0,0 l/m 0,0 km/h N 8,4 C 17,9 C 0,0 km/h
30.04.2012 23:00 15,8 C 61 % 1012,8 hPa 0,0 l/m 0,0 km/h N 8,4 C 15,8 C 0,0 km/h
01.05.2012 00:00 14,4 C 66 % 1013,0 hPa 0,0 l/m 0,0 km/h N 8,1 C 14,4 C 0,0 km/h
01.05.2012 01:00 12,9 C 70 % 1013,0 hPa 0,0 l/m 0,0 km/h N 7,5 C 12,9 C 0,0 km/h
01.05.2012 02:00 12,1 C 74 % 1012,9 hPa 0,0 l/m 0,0 km/h N 7,6 C 12,1 C 0,0 km/h
01.05.2012 03:00 11,2 C 78 % 1013,1 hPa 0,0 l/m 0,0 km/h N 7,5 C 11,2 C 0,4 km/h
01.05.2012 04:00 10,6 C 80 % 1013,3 hPa 0,0 l/m 0,0 km/h N 7,3 C 10,6 C 0,0 km/h
01.05.2012 05:00 10,1 C 81 % 1013,6 hPa 0,0 l/m 0,0 km/h N 7,0 C 10,1 C 0,0 km/h
01.05.2012 06:00 10,2 C 82 % 1014,1 hPa 0,0 l/m 0,0 km/h N 7,2 C 10,2 C 0,4 km/h
01.05.2012 07:00 11,8 C 81 % 1014,5 hPa 0,0 l/m 0,0 km/h N 8,6 C 11,8 C 0,4 km/h
01.05.2012 08:00 16,3 C 71 % 1014,6 hPa 0,0 l/m 0,1 km/h N 11,0 C 16,3 C 1,6 km/h
01.05.2012 09:00 21,4 C 53 % 1014,5 hPa 0,0 l/m 1,6 km/h N 11,3 C 21,4 C 6,9 km/h
01.05.2012 10:00 23,9 C 49 % 1014,4 hPa 0,0 l/m 2,2 km/h N 12,5 C 23,9 C 9,6 km/h
01.05.2012 11:00 26,4 C 42 % 1014,1 hPa 0,0 l/m 5,8 km/h N 12,2 C 26,2 C 17,7 km/h
01.05.2012 12:00 28,4 C 34 % 1013,7 hPa 0,0 l/m 8,7 km/h N 11,0 C 28,1 C 25,7 km/h
01.05.2012 13:00 29,4 C 31 % 1013,3 hPa 0,0 l/m 10,4 km/h N 10,6 C 29,0 C 29,4 km/h
01.05.2012 14:00 30,3 C 26 % 1012,9 hPa 0,0 l/m 9,9 km/h N 8,6 C 30,1 C 26,1 km/h
01.05.2012 15:00 30,1 C 24 % 1012,6 hPa 0,0 l/m 8,7 km/h N 7,5 C 29,9 C 23,3 km/h
01.05.2012 16:00 29,6 C 24 % 1012,2 hPa 0,0 l/m 10,6 km/h N 6,9 C 29,3 C 25,8 km/h
01.05.2012 17:00 29,3 C 26 % 1012,0 hPa 0,0 l/m 8,0 km/h N 7,8 C 29,2 C 19,3 km/h
01.05.2012 18:00 29,2 C 28 % 1011,9 hPa 0,0 l/m 6,8 km/h N 8,5 C 29,1 C 18,5 km/h
01.05.2012 19:00 28,0 C 33 % 1012,0 hPa 0,0 l/m 3,8 km/h N 10,2 C 28,0 C 12,5 km/h
01.05.2012 20:00 25,2 C 40 % 1012,3 hPa 0,0 l/m 0,5 km/h N 10,7 C 25,2 C 3,6 km/h
01.05.2012 21:00 20,6 C 54 % 1012,7 hPa 0,0 l/m 0,0 km/h N 10,9 C 20,6 C 0,0 km/h
01.05.2012 22:00 17,4 C 65 % 1012,8 hPa 0,0 l/m 0,0 km/h N 10,7 C 17,4 C 0,0 km/h
01.05.2012 23:00 15,7 C 72 % 1012,9 hPa 0,0 l/m 0,0 km/h N 10,6 C 15,7 C 0,0 km/h
02.05.2012 00:00 14,6 C 76 % 1013,0 hPa 0,0 l/m 0,0 km/h N 10,3 C 14,6 C 0,0 km/h
02.05.2012 01:00 13,6 C 78 % 1013,3 hPa 0,0 l/m 0,0 km/h N 9,8 C 13,6 C 0,0 km/h
02.05.2012 02:00 12,6 C 80 % 1013,1 hPa 0,0 l/m 0,0 km/h N 9,3 C 12,6 C 0,8 km/h
02.05.2012 03:00 12,3 C 81 % 1013,0 hPa 0,0 l/m 0,0 km/h N 9,1 C 12,3 C 0,4 km/h
02.05.2012 04:00 12,2 C 80 % 1012,9 hPa 0,0 l/m 0,0 km/h N 8,9 C 12,2 C 0,0 km/h
02.05.2012 05:00 11,8 C 80 % 1012,9 hPa 0,0 l/m 0,0 km/h N 8,5 C 11,8 C 0,0 km/h
02.05.2012 06:00 11,9 C 81 % 1012,9 hPa 0,0 l/m 0,0 km/h N 8,7 C 11,9 C 0,0 km/h
02.05.2012 07:00 13,4 C 80 % 1012,9 hPa 0,0 l/m 0,0 km/h N 10,1 C 13,4 C 0,8 km/h
02.05.2012 08:00 18,8 C 64 % 1012,5 hPa 0,0 l/m 0,3 km/h N 11,8 C 18,8 C 2,4 km/h
02.05.2012 09:00 22,5 C 54 % 1012,4 hPa 0,0 l/m 0,6 km/h N 12,8 C 22,5 C 4,4 km/h
02.05.2012 10:00 25,2 C 47 % 1012,5 hPa 0,0 l/m 1,3 km/h N 13,2 C 25,2 C 9,6 km/h
02.05.2012 11:00 26,9 C 43 % 1012,1 hPa 0,0 l/m 2,3 km/h N 13,3 C 26,9 C 9,6 km/h
02.05.2012 12:00 28,2 C 38 % 1011,4 hPa 0,0 l/m 5,6 km/h N 12,6 C 28,1 C 16,5 km/h
02.05.2012 13:00 29,6 C 35 % 1010,5 hPa 0,0 l/m 5,5 km/h N 12,5 C 29,6 C 20,9 km/h
02.05.2012 14:00 30,4 C 35 % 1009,8 hPa 0,0 l/m 4,6 km/h N 13,0 C 30,4 C 20,1 km/h
02.05.2012 15:00 30,1 C 32 % 1009,0 hPa 0,0 l/m 7,5 km/h N 11,5 C 30,0 C 23,3 km/h
02.05.2012 16:00 29,7 C 29 % 1008,3 hPa 0,0 l/m 8,9 km/h N 9,9 C 29,5 C 22,1 km/h
02.05.2012 17:00 29,5 C 30 % 1008,0 hPa 0,0 l/m 8,5 km/h N 9,9 C 29,3 C 22,1 km/h
02.05.2012 18:00 29,3 C 30 % 1007,5 hPa 0,0 l/m 7,1 km/h N 9,8 C 29,2 C 20,1 km/h
02.05.2012 19:00 28,0 C 31 % 1007,4 hPa 0,0 l/m 2,9 km/h N 9,2 C 28,0 C 9,6 km/h
02.05.2012 20:00 24,0 C 41 % 1007,9 hPa 0,0 l/m 0,0 km/h N 9,8 C 24,0 C 0,4 km/h
02.05.2012 21:00 19,3 C 55 % 1008,2 hPa 0,0 l/m 0,1 km/h N 9,9 C 19,3 C 0,8 km/h
02.05.2012 22:00 17,2 C 60 % 1008,1 hPa 0,0 l/m 0,1 km/h N 9,4 C 17,2 C 1,6 km/h
02.05.2012 23:00 16,4 C 63 % 1008,0 hPa 0,0 l/m 0,1 km/h N 9,3 C 16,4 C 1,6 km/h
03.05.2012 00:00 15,3 C 66 % 1008,0 hPa 0,0 l/m 0,0 km/h N 8,9 C 15,3 C 0,0 km/h
03.05.2012 01:00 14,8 C 67 % 1007,6 hPa 0,0 l/m 0,1 km/h N 8,7 C 14,8 C 2,8 km/h
03.05.2012 02:00 14,5 C 68 % 1007,5 hPa 0,0 l/m 0,4 km/h N 8,6 C 14,5 C 5,2 km/h
03.05.2012 03:00 16,3 C 65 % 1007,6 hPa 0,0 l/m 1,8 km/h N 9,6 C 16,3 C 9,7 km/h
03.05.2012 04:00 18,5 C 59 % 1007,3 hPa 0,0 l/m 4,4 km/h N 10,4 C 18,5 C 18,5 km/h
03.05.2012 05:00 18,7 C 60 % 1007,5 hPa 0,0 l/m 5,9 km/h N 10,7 C 18,6 C 21,7 km/h
03.05.2012 06:00 18,4 C 62 % 1007,8 hPa 0,0 l/m 7,6 km/h N 10,9 C 17,8 C 22,1 km/h
03.05.2012 07:00 18,4 C 63 % 1008,6 hPa 0,0 l/m 8,6 km/h N 11,2 C 17,5 C 24,1 km/h
03.05.2012 08:00 17,7 C 66 % 1010,0 hPa 0,0 l/m 3,4 km/h N 11,1 C 17,7 C 16,1 km/h
03.05.2012 09:00 17,1 C 68 % 1010,4 hPa 0,0 l/m 7,7 km/h N 11,0 C 16,4 C 23,3 km/h
03.05.2012 10:00 17,6 C 66 % 1010,0 hPa 0,0 l/m 4,1 km/h N 11,1 C 17,6 C 22,5 km/h
03.05.2012 11:00 18,0 C 65 % 1010,6 hPa 0,0 l/m 5,4 km/h N 11,2 C 18,0 C 18,1 km/h
03.05.2012 12:00 18,3 C 64 % 1010,3 hPa 0,0 l/m 8,4 km/h N 11,4 C 17,4 C 22,9 km/h
03.05.2012 13:00 19,7 C 59 % 1009,2 hPa 0,0 l/m 13,1 km/h N 11,4 C 17,4 C 31,4 km/h
03.05.2012 14:00 20,7 C 58 % 1009,0 hPa 0,0 l/m 5,6 km/h N 12,2 C 20,7 C 22,1 km/h
03.05.2012 15:00 20,5 C 58 % 1008,5 hPa 0,0 l/m 7,8 km/h N 11,8 C 20,0 C 21,7 km/h
03.05.2012 16:00 21,5 C 55 % 1007,7 hPa 0,0 l/m 2,5 km/h N 12,0 C 21,5 C 8,9 km/h
03.05.2012 17:00 20,3 C 58 % 1006,7 hPa 0,0 l/m 7,5 km/h N 11,7 C 19,7 C 17,7 km/h
03.05.2012 18:00 19,5 C 59 % 1006,1 hPa 0,0 l/m 11,1 km/h N 11,3 C 17,8 C 26,2 km/h
03.05.2012 19:00 19,1 C 58 % 1006,3 hPa 0,0 l/m 5,0 km/h N 10,7 C 18,8 C 19,3 km/h
03.05.2012 20:00 18,0 C 60 % 1006,8 hPa 0,0 l/m 1,5 km/h N 10,2 C 18,0 C 11,3 km/h
03.05.2012 21:00 17,8 C 61 % 1006,7 hPa 0,0 l/m 4,1 km/h N 10,1 C 17,7 C 17,3 km/h
03.05.2012 22:00 18,1 C 60 % 1007,0 hPa 0,0 l/m 7,1 km/h N 10,3 C 17,4 C 22,1 km/h
03.05.2012 23:00 17,7 C 62 % 1007,0 hPa 0,0 l/m 5,1 km/h N 10,4 C 17,5 C 19,3 km/h
04.05.2012 00:00 17,2 C 66 % 1006,4 hPa 0,0 l/m 6,0 km/h N 10,7 C 17,1 C 18,5 km/h
04.05.2012 01:00 16,7 C 68 % 1006,3 hPa 0,0 l/m 6,2 km/h N 10,8 C 16,4 C 16,1 km/h
04.05.2012 02:00 15,9 C 72 % 1006,0 hPa 0,0 l/m 9,1 km/h N 10,7 C 14,5 C 21,7 km/h
04.05.2012 03:00 16,2 C 72 % 1005,5 hPa 0,0 l/m 12,1 km/h N 11,1 C 13,6 C 26,5 km/h
04.05.2012 04:00 15,9 C 72 % 1005,1 hPa 0,0 l/m 13,3 km/h N 10,9 C 12,9 C 29,8 km/h
04.05.2012 05:00 15,4 C 74 % 1005,2 hPa 0,0 l/m 12,3 km/h N 10,8 C 12,6 C 29,4 km/h
04.05.2012 06:00 14,9 C 78 % 1006,0 hPa 2,6 l/m 5,8 km/h N 11,1 C 14,3 C 19,7 km/h
04.05.2012 07:00 14,0 C 81 % 1006,0 hPa 1,6 l/m 4,3 km/h N 10,7 C 14,0 C 14,9 km/h
04.05.2012 08:00 14,0 C 81 % 1006,1 hPa 0,0 l/m 6,1 km/h N 10,7 C 13,8 C 16,9 km/h
04.05.2012 09:00 14,2 C 81 % 1006,5 hPa 0,8 l/m 3,4 km/h N 11,0 C 14,2 C 10,9 km/h
04.05.2012 10:00 14,2 C 81 % 1006,6 hPa 0,5 l/m 4,1 km/h N 11,0 C 14,2 C 12,9 km/h
04.05.2012 11:00 14,2 C 81 % 1006,7 hPa 0,0 l/m 1,8 km/h N 10,9 C 14,2 C 10,1 km/h
04.05.2012 12:00 14,5 C 78 % 1006,2 hPa 0,0 l/m 2,5 km/h N 10,7 C 14,5 C 13,3 km/h
04.05.2012 13:00 14,7 C 78 % 1006,1 hPa 0,3 l/m 3,6 km/h N 10,8 C 14,7 C 16,1 km/h
04.05.2012 14:00 14,6 C 81 % 1006,1 hPa 0,0 l/m 1,3 km/h N 11,4 C 14,6 C 6,4 km/h
04.05.2012 15:00 15,4 C 69 % 1005,6 hPa 0,0 l/m 3,1 km/h N 9,6 C 15,4 C 11,3 km/h
04.05.2012 16:00 16,3 C 73 % 1005,3 hPa 0,0 l/m 1,5 km/h N 11,4 C 16,3 C 7,6 km/h
04.05.2012 17:00 16,0 C 80 % 1005,0 hPa 0,0 l/m 1,3 km/h N 12,4 C 16,0 C 8,0 km/h
04.05.2012 18:00 16,2 C 79 % 1004,5 hPa 0,0 l/m 1,2 km/h N 12,4 C 16,2 C 8,0 km/h
04.05.2012 19:00 16,1 C 76 % 1004,6 hPa 0,0 l/m 1,0 km/h N 11,7 C 16,1 C 6,0 km/h
04.05.2012 20:00 15,3 C 76 % 1004,9 hPa 0,0 l/m 0,4 km/h N 11,0 C 15,3 C 4,4 km/h
04.05.2012 21:00 13,5 C 81 % 1005,3 hPa 0,0 l/m 0,5 km/h N 10,2 C 13,5 C 4,8 km/h
04.05.2012 22:00 11,9 C 82 % 1005,4 hPa 0,0 l/m 0,0 km/h N 8,9 C 11,9 C 0,4 km/h
04.05.2012 23:00 10,7 C 81 % 1005,5 hPa 0,0 l/m 0,0 km/h N 7,6 C 10,7 C 0,4 km/h
05.05.2012 00:00 9,8 C 81 % 1005,3 hPa 0,0 l/m 0,0 km/h N 6,6 C 9,8 C 0,8 km/h
05.05.2012 01:00 9,1 C 81 % 1005,3 hPa 0,0 l/m 0,1 km/h N 5,9 C 9,1 C 1,2 km/h
05.05.2012 02:00 8,2 C 81 % 1005,0 hPa 0,0 l/m 0,0 km/h N 5,0 C 8,2 C 0,0 km/h
05.05.2012 03:00 7,8 C 80 % 1004,8 hPa 0,0 l/m 0,0 km/h N 4,5 C 7,8 C 0,0 km/h
05.05.2012 04:00 7,1 C 80 % 1004,7 hPa 0,3 l/m 0,0 km/h N 3,9 C 7,1 C 0,0 km/h
05.05.2012 05:00 6,5 C 80 % 1004,8 hPa 0,0 l/m 0,0 km/h N 3,3 C 6,5 C 0,0 km/h
05.05.2012 06:00 6,9 C 78 % 1004,9 hPa 0,0 l/m 0,1 km/h N 3,4 C 6,9 C 2,4 km/h
05.05.2012 07:00 9,2 C 76 % 1005,1 hPa 0,0 l/m 0,4 km/h N 5,1 C 9,2 C 2,0 km/h
05.05.2012 08:00 10,8 C 75 % 1005,3 hPa 0,0 l/m 0,6 km/h N 6,5 C 10,8 C 5,6 km/h
05.05.2012 09:00 11,3 C 75 % 1005,2 hPa 0,0 l/m 0,4 km/h N 7,0 C 11,3 C 5,2 km/h
05.05.2012 10:00 12,3 C 75 % 1005,3 hPa 0,0 l/m 0,6 km/h N 7,9 C 12,3 C 5,6 km/h
05.05.2012 11:00 14,1 C 76 % 1005,2 hPa 0,0 l/m 2,5 km/h N 9,9 C 14,1 C 8,9 km/h
05.05.2012 12:00 18,1 C 76 % 1004,2 hPa 0,0 l/m 3,2 km/h N 13,9 C 18,1 C 13,7 km/h
05.05.2012 13:00 21,2 C 67 % 1003,3 hPa 0,0 l/m 4,5 km/h N 14,8 C 21,2 C 16,5 km/h
05.05.2012 14:00 23,3 C 55 % 1002,4 hPa 0,0 l/m 7,4 km/h N 13,5 C 22,9 C 22,5 km/h
05.05.2012 15:00 23,8 C 46 % 1001,6 hPa 0,0 l/m 12,0 km/h N 11,5 C 22,4 C 27,4 km/h
05.05.2012 16:00 23,8 C 45 % 1001,2 hPa 0,0 l/m 11,6 km/h N 10,9 C 22,5 C 29,8 km/h
05.05.2012 17:00 23,1 C 42 % 1001,0 hPa 0,0 l/m 7,1 km/h N 9,3 C 22,7 C 20,9 km/h
05.05.2012 18:00 20,4 C 53 % 1002,3 hPa 0,0 l/m 8,8 km/h N 10,3 C 19,5 C 31,8 km/h
05.05.2012 19:00 15,6 C 72 % 1004,3 hPa 1,0 l/m 10,8 km/h N 10,7 C 13,5 C 33,8 km/h
05.05.2012 20:00 14,2 C 72 % 1005,0 hPa 0,0 l/m 10,8 km/h N 9,1 C 11,8 C 28,2 km/h
05.05.2012 21:00 14,3 C 69 % 1005,5 hPa 0,0 l/m 5,1 km/h N 8,7 C 14,3 C 18,9 km/h
05.05.2012 22:00 14,3 C 68 % 1006,3 hPa 0,0 l/m 5,0 km/h N 8,5 C 14,0 C 18,1 km/h
05.05.2012 23:00 13,6 C 72 % 1006,5 hPa 0,0 l/m 1,9 km/h N 8,6 C 13,6 C 11,3 km/h
06.05.2012 00:00 13,1 C 73 % 1006,5 hPa 0,0 l/m 0,6 km/h N 8,4 C 13,1 C 6,0 km/h
06.05.2012 01:00 12,8 C 72 % 1006,7 hPa 0,0 l/m 1,4 km/h N 7,8 C 12,8 C 4,8 km/h
06.05.2012 02:00 10,9 C 76 % 1007,1 hPa 0,0 l/m 0,1 km/h N 6,8 C 10,9 C 1,6 km/h
06.05.2012 03:00 9,5 C 81 % 1007,2 hPa 0,0 l/m 0,0 km/h N 6,3 C 9,5 C 0,0 km/h
06.05.2012 04:00 9,6 C 81 % 1007,3 hPa 0,0 l/m 0,0 km/h N 6,5 C 9,6 C 0,0 km/h
06.05.2012 05:00 9,8 C 82 % 1007,3 hPa 0,0 l/m 0,3 km/h N 6,8 C 9,8 C 2,0 km/h
06.05.2012 06:00 10,3 C 81 % 1007,8 hPa 0,0 l/m 0,0 km/h N 7,1 C 10,3 C 0,4 km/h
06.05.2012 07:00 11,6 C 82 % 1008,3 hPa 0,0 l/m 0,0 km/h N 8,5 C 11,6 C 0,0 km/h
06.05.2012 08:00 12,9 C 81 % 1008,6 hPa 0,0 l/m 0,0 km/h N 9,7 C 12,9 C 0,0 km/h
06.05.2012 09:00 15,0 C 74 % 1008,7 hPa 0,0 l/m 0,2 km/h N 10,4 C 15,0 C 2,8 km/h
06.05.2012 10:00 18,4 C 59 % 1008,7 hPa 0,0 l/m 0,8 km/h N 10,2 C 18,4 C 6,4 km/h
06.05.2012 11:00 19,7 C 57 % 1008,8 hPa 0,0 l/m 2,0 km/h N 11,0 C 19,7 C 11,7 km/h
06.05.2012 12:00 21,8 C 50 % 1008,5 hPa 0,0 l/m 3,7 km/h N 10,8 C 21,8 C 15,3 km/h
06.05.2012 13:00 22,8 C 47 % 1008,3 hPa 0,0 l/m 3,0 km/h N 11,0 C 22,8 C 16,1 km/h
06.05.2012 14:00 23,0 C 48 % 1007,7 hPa 0,0 l/m 2,1 km/h N 11,4 C 23,0 C 10,5 km/h
06.05.2012 15:00 22,3 C 50 % 1007,1 hPa 0,0 l/m 1,8 km/h N 11,2 C 22,3 C 12,1 km/h
06.05.2012 16:00 21,1 C 52 % 1006,8 hPa 0,3 l/m 0,6 km/h N 10,9 C 21,1 C 6,4 km/h
06.05.2012 17:00 17,4 C 73 % 1007,6 hPa 1,0 l/m 2,0 km/h N 12,4 C 17,4 C 12,9 km/h
06.05.2012 18:00 15,8 C 80 % 1007,5 hPa 0,5 l/m 3,9 km/h N 12,3 C 15,8 C 10,5 km/h
06.05.2012 19:00 15,9 C 79 % 1007,8 hPa 0,8 l/m 2,3 km/h N 12,2 C 15,9 C 9,3 km/h
06.05.2012 20:00 15,0 C 76 % 1009,0 hPa 1,3 l/m 9,9 km/h N 10,9 C 13,2 C 24,9 km/h
06.05.2012 21:00 13,7 C 78 % 1009,8 hPa 0,8 l/m 7,7 km/h N 9,9 C 12,8 C 28,6 km/h
06.05.2012 22:00 12,8 C 80 % 1010,4 hPa 0,5 l/m 3,7 km/h N 9,4 C 12,8 C 17,7 km/h
06.05.2012 23:00 13,2 C 78 % 1011,1 hPa 0,3 l/m 8,0 km/h N 9,4 C 12,0 C 27,0 km/h
Min-Datum _ 05.05.12 30.04.12 05.05.12 - 30.04.12 - 05.05.12 05.05.12 30.04.12
_ Min-Zeit 05:30 14:45 17:45 - 02:30 - 06:00 05:30 04:30
Minimum _ 6,4 C 23 % 1000,8 hPa - 0,0 km/h - 3,0 C 6,4 C 0,0 km/h
Max-Datum _ 01.05.12 01.05.12 01.05.12 04.05.12 03.05.12 - 05.05.12 02.05.12 05.05.12
_ Max-Zeit 14:45 06:00 08:15 06:30 13:00 - 13:45 14:45 16:15
Maximum _ 30,7 C 82 % 1014,7 hPa 2,6 l/m 16,8 km/h
N
- 15,1 C 30,6 C 38,6 km/h
N
Durchschnitt _ 18,0 C 62 % 1008,9 hPa #12,5 l/m 3,5 km/h N 9,6 C 17,8 C 11,5 km/h